KYKN/YKN METAR and TAF weather

Enter ICAO airport designator
Station Type Date Time Source
KYKN METAR 2020/07/11 19:56 UTC NOAA

KYKN 111956Z AUTO 32014G19KT 10SM CLR 27/14 A3004 RMK AO2 SLP174 T02720144


Station Type Date Time Source
KYKN Decoded METAR 2020/07/11 19:56 UTC NOAA

Yankton, Chan Gurney Municipal Airport, SD, United States (KYKN) 42-55N 097-23W
Jul 11, 2020 - 03:56 PM EDT / 2020.07.11 1956 UTC
Wind: from the NW (320 degrees) at 16 MPH (14 KT) gusting to 22 MPH (19 KT):0
Visibility: 10 mile(s):0
Sky conditions: clear
Temperature: 81.0 F (27.2 C)
Dew Point: 57.9 F (14.4 C)
Relative Humidity: 45%
Pressure (altimeter): 30.04 in. Hg (1017 hPa)
ob: KYKN 111956Z AUTO 32014G19KT 10SM CLR 27/14 A3004 RMK AO2 SLP174 T02720144
cycle: 20

Station Type Date Time Source
KYKN TAF UTC NOAA

Error!

Example: see airport list